sensor_id;sensor_type;location;lat;lon;timestamp;temperature;humidity
66920;DHT22;53831;52.090;17.026;2023-04-01T00:04:58;8.70;99.90
66920;DHT22;53831;52.090;17.026;2023-04-01T00:09:58;8.80;99.90
66920;DHT22;53831;52.090;17.026;2023-04-01T00:14:59;8.80;99.90
66920;DHT22;53831;52.090;17.026;2023-04-01T00:20:00;8.80;99.90
66920;DHT22;53831;52.090;17.026;2023-04-01T00:25:01;8.80;99.90
66920;DHT22;53831;52.090;17.026;2023-04-01T00:30:02;8.80;99.90
66920;DHT22;53831;52.090;17.026;2023-04-01T00:35:04;8.80;99.90
66920;DHT22;53831;52.090;17.026;2023-04-01T00:40:05;8.80;99.90
66920;DHT22;53831;52.090;17.026;2023-04-01T00:45:52;8.80;99.90
66920;DHT22;53831;52.090;17.026;2023-04-01T00:50:35;8.70;99.90
66920;DHT22;53831;52.090;17.026;2023-04-01T00:55:40;8.70;99.90
66920;DHT22;53831;52.090;17.026;2023-04-01T01:00:46;8.70;99.90
66920;DHT22;53831;52.090;17.026;2023-04-01T01:12:00;8.80;99.90
66920;DHT22;53831;52.090;17.026;2023-04-01T01:17:13;8.80;99.90
66920;DHT22;53831;52.090;17.026;2023-04-01T01:22:52;8.80;99.90
66920;DHT22;53831;52.090;17.026;2023-04-01T01:38:52;8.80;99.90
66920;DHT22;53831;52.090;17.026;2023-04-01T01:43:55;8.80;99.90
66920;DHT22;53831;52.090;17.026;2023-04-01T01:48:57;8.90;99.90
66920;DHT22;53831;52.090;17.026;2023-04-01T01:54:00;8.90;99.90
66920;DHT22;53831;52.090;17.026;2023-04-01T01:59:03;8.90;99.90
66920;DHT22;53831;52.090;17.026;2023-04-01T02:04:09;9.00;99.90
66920;DHT22;53831;52.090;17.026;2023-04-01T02:09:11;9.00;99.90
66920;DHT22;53831;52.090;17.026;2023-04-01T02:14:25;9.00;99.90
66920;DHT22;53831;52.090;17.026;2023-04-01T02:19:31;9.00;99.90
66920;DHT22;53831;52.090;17.026;2023-04-01T02:24:36;9.00;99.90
66920;DHT22;53831;52.090;17.026;2023-04-01T02:29:40;9.00;99.90
66920;DHT22;53831;52.090;17.026;2023-04-01T02:34:41;8.90;99.90
66920;DHT22;53831;52.090;17.026;2023-04-01T02:39:43;8.90;99.90
66920;DHT22;53831;52.090;17.026;2023-04-01T02:44:43;9.00;99.90
66920;DHT22;53831;52.090;17.026;2023-04-01T02:49:44;9.00;99.90
66920;DHT22;53831;52.090;17.026;2023-04-01T02:54:45;9.00;99.90
66920;DHT22;53831;52.090;17.026;2023-04-01T02:59:45;8.90;99.90
66920;DHT22;53831;52.090;17.026;2023-04-01T03:04:47;8.90;99.90
66920;DHT22;53831;52.090;17.026;2023-04-01T03:09:47;8.90;99.90
66920;DHT22;53831;52.090;17.026;2023-04-01T03:14:48;8.80;99.90
66920;DHT22;53831;52.090;17.026;2023-04-01T03:19:49;8.80;99.90
66920;DHT22;53831;52.090;17.026;2023-04-01T03:24:50;8.70;99.90
66920;DHT22;53831;52.090;17.026;2023-04-01T03:29:50;8.70;99.90
66920;DHT22;53831;52.090;17.026;2023-04-01T03:34:51;8.70;99.90
66920;DHT22;53831;52.090;17.026;2023-04-01T03:39:52;8.70;99.90
66920;DHT22;53831;52.090;17.026;2023-04-01T03:44:53;8.70;99.90
66920;DHT22;53831;52.090;17.026;2023-04-01T03:49:54;8.60;99.90
66920;DHT22;53831;52.090;17.026;2023-04-01T03:54:55;8.70;99.90
66920;DHT22;53831;52.090;17.026;2023-04-01T03:59:56;8.60;99.90
66920;DHT22;53831;52.090;17.026;2023-04-01T04:04:56;8.70;99.90
66920;DHT22;53831;52.090;17.026;2023-04-01T04:09:57;8.70;99.90
66920;DHT22;53831;52.090;17.026;2023-04-01T04:14:58;8.70;99.90
66920;DHT22;53831;52.090;17.026;2023-04-01T04:19:59;8.70;99.90
66920;DHT22;53831;52.090;17.026;2023-04-01T04:25:00;8.70;99.90
66920;DHT22;53831;52.090;17.026;2023-04-01T04:30:02;8.70;99.90
66920;DHT22;53831;52.090;17.026;2023-04-01T04:35:03;8.70;99.90
66920;DHT22;53831;52.090;17.026;2023-04-01T04:40:07;8.80;99.90
66920;DHT22;53831;52.090;17.026;2023-04-01T04:45:08;8.80;99.90
66920;DHT22;53831;52.090;17.026;2023-04-01T04:50:10;8.90;99.90
66920;DHT22;53831;52.090;17.026;2023-04-01T04:55:12;8.90;99.90
66920;DHT22;53831;52.090;17.026;2023-04-01T05:00:13;8.90;99.90
66920;DHT22;53831;52.090;17.026;2023-04-01T05:05:29;8.90;99.90
66920;DHT22;53831;52.090;17.026;2023-04-01T05:10:30;8.90;99.90
66920;DHT22;53831;52.090;17.026;2023-04-01T05:15:31;8.90;99.90
66920;DHT22;53831;52.090;17.026;2023-04-01T05:20:32;8.90;99.90
66920;DHT22;53831;52.090;17.026;2023-04-01T05:25:33;9.00;99.90
66920;DHT22;53831;52.090;17.026;2023-04-01T05:30:34;9.00;99.90
66920;DHT22;53831;52.090;17.026;2023-04-01T05:35:51;9.10;99.90
66920;DHT22;53831;52.090;17.026;2023-04-01T05:40:58;9.10;99.90
66920;DHT22;53831;52.090;17.026;2023-04-01T05:45:59;9.10;99.90
66920;DHT22;53831;52.090;17.026;2023-04-01T05:51:23;9.10;99.90
66920;DHT22;53831;52.090;17.026;2023-04-01T05:56:23;9.20;99.90
66920;DHT22;53831;52.090;17.026;2023-04-01T06:01:25;9.30;99.90
66920;DHT22;53831;52.090;17.026;2023-04-01T06:06:27;9.30;99.90
66920;DHT22;53831;52.090;17.026;2023-04-01T06:17:05;9.40;99.90
66920;DHT22;53831;52.090;17.026;2023-04-01T06:22:20;9.30;99.90
66920;DHT22;53831;52.090;17.026;2023-04-01T06:27:30;9.30;99.90
66920;DHT22;53831;52.090;17.026;2023-04-01T06:32:58;9.50;99.90
66920;DHT22;53831;52.090;17.026;2023-04-01T06:38:19;9.50;99.90
66920;DHT22;53831;52.090;17.026;2023-04-01T06:43:46;9.60;99.90
66920;DHT22;53831;52.090;17.026;2023-04-01T06:49:28;9.60;99.90
66920;DHT22;53831;52.090;17.026;2023-04-01T07:00:44;9.60;99.90
66920;DHT22;53831;52.090;17.026;2023-04-01T07:05:50;9.70;99.90
66920;DHT22;53831;52.090;17.026;2023-04-01T07:27:19;9.80;99.90
66920;DHT22;53831;52.090;17.026;2023-04-01T07:32:43;9.90;99.90
66920;DHT22;53831;52.090;17.026;2023-04-01T07:48:51;10.00;99.90
66920;DHT22;53831;52.090;17.026;2023-04-01T07:54:02;9.80;99.90
66920;DHT22;53831;52.090;17.026;2023-04-01T07:59:33;9.80;99.90
66920;DHT22;53831;52.090;17.026;2023-04-01T08:05:19;10.00;99.90
66920;DHT22;53831;52.090;17.026;2023-04-01T08:16:08;9.80;99.90
66920;DHT22;53831;52.090;17.026;2023-04-01T08:21:28;10.10;99.90
66920;DHT22;53831;52.090;17.026;2023-04-01T08:26:41;10.10;99.90
66920;DHT22;53831;52.090;17.026;2023-04-01T08:31:50;10.20;99.90
66920;DHT22;53831;52.090;17.026;2023-04-01T08:37:06;10.00;99.90
66920;DHT22;53831;52.090;17.026;2023-04-01T09:20:58;10.80;99.90
66920;DHT22;53831;52.090;17.026;2023-04-01T09:47:42;10.80;99.90
66920;DHT22;53831;52.090;17.026;2023-04-01T10:59:54;11.40;99.90
66920;DHT22;53831;52.090;17.026;2023-04-01T11:05:35;11.40;99.90
66920;DHT22;53831;52.090;17.026;2023-04-01T11:33:25;11.50;99.90
66920;DHT22;53831;52.090;17.026;2023-04-01T11:38:48;11.40;99.90
66920;DHT22;53831;52.090;17.026;2023-04-01T11:44:17;11.70;99.90
66920;DHT22;53831;52.090;17.026;2023-04-01T11:49:49;11.40;99.90
66920;DHT22;53831;52.090;17.026;2023-04-01T12:00:39;12.10;99.90
66920;DHT22;53831;52.090;17.026;2023-04-01T12:06:02;12.00;99.90
66920;DHT22;53831;52.090;17.026;2023-04-01T12:11:15;11.90;99.90
66920;DHT22;53831;52.090;17.026;2023-04-01T12:26:55;11.90;99.90
66920;DHT22;53831;52.090;17.026;2023-04-01T12:32:12;11.60;99.90
66920;DHT22;53831;52.090;17.026;2023-04-01T12:37:21;11.50;99.90
66920;DHT22;53831;52.090;17.026;2023-04-01T12:42:39;11.30;99.90
66920;DHT22;53831;52.090;17.026;2023-04-01T13:36:32;10.80;99.90
66920;DHT22;53831;52.090;17.026;2023-04-01T13:47:17;11.20;99.90
66920;DHT22;53831;52.090;17.026;2023-04-01T13:57:57;10.90;99.90
66920;DHT22;53831;52.090;17.026;2023-04-01T14:03:44;10.50;99.90
66920;DHT22;53831;52.090;17.026;2023-04-01T14:08:41;10.50;99.90
66920;DHT22;53831;52.090;17.026;2023-04-01T14:14:06;10.20;99.90
66920;DHT22;53831;52.090;17.026;2023-04-01T14:19:27;10.10;99.90
66920;DHT22;53831;52.090;17.026;2023-04-01T14:30:29;9.80;99.90
66920;DHT22;53831;52.090;17.026;2023-04-01T14:35:38;9.80;99.90
66920;DHT22;53831;52.090;17.026;2023-04-01T14:40:49;9.90;99.90
66920;DHT22;53831;52.090;17.026;2023-04-01T14:46:02;10.20;99.90
66920;DHT22;53831;52.090;17.026;2023-04-01T14:51:21;10.20;99.90
66920;DHT22;53831;52.090;17.026;2023-04-01T14:56:35;10.40;99.90
66920;DHT22;53831;52.090;17.026;2023-04-01T15:12:20;10.00;99.90
66920;DHT22;53831;52.090;17.026;2023-04-01T15:22:43;9.40;99.90
66920;DHT22;53831;52.090;17.026;2023-04-01T15:28:11;9.50;99.90
66920;DHT22;53831;52.090;17.026;2023-04-01T15:43:53;10.00;99.90
66920;DHT22;53831;52.090;17.026;2023-04-01T15:54:15;9.70;99.90
66920;DHT22;53831;52.090;17.026;2023-04-01T16:04:47;9.50;99.90
66920;DHT22;53831;52.090;17.026;2023-04-01T16:10:16;9.40;99.90
66920;DHT22;53831;52.090;17.026;2023-04-01T16:21:35;9.40;99.90
66920;DHT22;53831;52.090;17.026;2023-04-01T16:26:50;9.30;99.90
66920;DHT22;53831;52.090;17.026;2023-04-01T16:31:58;9.10;99.90
66920;DHT22;53831;52.090;17.026;2023-04-01T16:37:10;9.10;99.90
66920;DHT22;53831;52.090;17.026;2023-04-01T16:42:25;9.10;99.90
66920;DHT22;53831;52.090;17.026;2023-04-01T16:47:30;9.00;99.90
66920;DHT22;53831;52.090;17.026;2023-04-01T16:52:57;8.90;99.90
66920;DHT22;53831;52.090;17.026;2023-04-01T16:58:02;8.90;99.90
66920;DHT22;53831;52.090;17.026;2023-04-01T17:03:04;8.80;99.90
66920;DHT22;53831;52.090;17.026;2023-04-01T17:08:34;8.70;99.90
66920;DHT22;53831;52.090;17.026;2023-04-01T17:24:38;8.50;99.90
66920;DHT22;53831;52.090;17.026;2023-04-01T17:35:31;8.50;99.90
66920;DHT22;53831;52.090;17.026;2023-04-01T17:45:49;8.30;99.90
66920;DHT22;53831;52.090;17.026;2023-04-01T17:56:19;8.30;99.90
66920;DHT22;53831;52.090;17.026;2023-04-01T18:06:58;8.00;99.90
66920;DHT22;53831;52.090;17.026;2023-04-01T18:12:13;7.80;99.90
66920;DHT22;53831;52.090;17.026;2023-04-01T18:17:40;7.60;99.90
66920;DHT22;53831;52.090;17.026;2023-04-01T18:22:55;7.50;99.90
66920;DHT22;53831;52.090;17.026;2023-04-01T18:33:19;7.40;99.90
66920;DHT22;53831;52.090;17.026;2023-04-01T18:38:37;7.30;99.90
66920;DHT22;53831;52.090;17.026;2023-04-01T18:54:24;7.10;99.90
66920;DHT22;53831;52.090;17.026;2023-04-01T18:59:36;7.10;99.90
66920;DHT22;53831;52.090;17.026;2023-04-01T19:04:50;6.90;99.90
66920;DHT22;53831;52.090;17.026;2023-04-01T19:20:43;6.90;99.90
66920;DHT22;53831;52.090;17.026;2023-04-01T19:25:58;6.80;99.90
66920;DHT22;53831;52.090;17.026;2023-04-01T19:36:58;6.70;99.90
66920;DHT22;53831;52.090;17.026;2023-04-01T19:47:12;6.70;99.90
66920;DHT22;53831;52.090;17.026;2023-04-01T19:52:33;6.60;99.90
66920;DHT22;53831;52.090;17.026;2023-04-01T19:57:49;6.60;99.90
66920;DHT22;53831;52.090;17.026;2023-04-01T20:08:05;6.40;99.90
66920;DHT22;53831;52.090;17.026;2023-04-01T20:18:55;6.40;99.90
66920;DHT22;53831;52.090;17.026;2023-04-01T20:40:14;6.20;99.90
66920;DHT22;53831;52.090;17.026;2023-04-01T20:45:42;6.20;99.90
66920;DHT22;53831;52.090;17.026;2023-04-01T20:50:59;6.10;99.90
66920;DHT22;53831;52.090;17.026;2023-04-01T21:18:28;5.70;99.90
66920;DHT22;53831;52.090;17.026;2023-04-01T21:23:27;5.70;99.90
66920;DHT22;53831;52.090;17.026;2023-04-01T21:33:58;5.40;99.90
66920;DHT22;53831;52.090;17.026;2023-04-01T21:39:22;5.40;99.90
66920;DHT22;53831;52.090;17.026;2023-04-01T21:44:40;5.30;99.90
66920;DHT22;53831;52.090;17.026;2023-04-01T22:05:30;5.20;99.90
66920;DHT22;53831;52.090;17.026;2023-04-01T22:10:54;5.20;99.90
66920;DHT22;53831;52.090;17.026;2023-04-01T22:16:40;5.00;99.90
66920;DHT22;53831;52.090;17.026;2023-04-01T22:27:30;5.00;99.90
66920;DHT22;53831;52.090;17.026;2023-04-01T22:37:53;4.80;99.90
66920;DHT22;53831;52.090;17.026;2023-04-01T22:43:00;4.70;99.90
66920;DHT22;53831;52.090;17.026;2023-04-01T22:58:15;4.70;99.90
66920;DHT22;53831;52.090;17.026;2023-04-01T23:03:26;4.70;99.90
66920;DHT22;53831;52.090;17.026;2023-04-01T23:19:52;4.60;99.90
66920;DHT22;53831;52.090;17.026;2023-04-01T23:24:40;4.60;99.90
66920;DHT22;53831;52.090;17.026;2023-04-01T23:29:59;4.60;99.90
66920;DHT22;53831;52.090;17.026;2023-04-01T23:35:00;4.50;99.90
66920;DHT22;53831;52.090;17.026;2023-04-01T23:40:01;4.50;99.90
66920;DHT22;53831;52.090;17.026;2023-04-01T23:45:03;4.50;99.90
66920;DHT22;53831;52.090;17.026;2023-04-01T23:50:18;4.50;99.90
66920;DHT22;53831;52.090;17.026;2023-04-01T23:55:27;4.40;99.90
